Hlavní strana
METAR-TAF:

METAR-TAF

Letiště :

Letiště Leoše Janáčka Ostrava

Ostrava, Česká republika

zeměpisná šířka: 49-41N, zeměpisná délka: 018-07E, výška: 256 m

Aktuální stav počasí

Zpráva byla vytvořena před 16 minutami, v 08:30 UTC
vítr z různých směrů 2 kt
Teplota 12°C
Vlhkost vzduchu 40%
Tlak 1029 hPa
Viditelnost 10 km a více
Žádná oblačnost pod 1500 m, nevyskytují se cumulonimby.

METAR: LKMT 060830Z VRB02KT CAVOK 12/M01 Q1029 NOSIG

Čas: 10:46 (08:46 UTC)

Předpověď počasí

Zpráva byla vytvořena před 3 hodinami a 46 minutami, v 05:00 UTC
Předpověď platná od 06 v 06 UTC do 07 v 12 UTC
vítr z různých směrů 2 kt
Viditelnost 10 km a více
Žádná oblačnost pod 1500 m, nevyskytují se cumulonimby.
Změna
od 06 v 08 UTC do 06 v 10 UTC
Jihojihozápadní vítr 10 kt
Dočasný
od 06 v 11 UTC do 06 v 18 UTC
Jihojihozápadní vítr 16 kt s nárazy do 26 kt

TAF: LKMT 060500Z 0606/0712 VRB02KT CAVOK BECMG 0608/0610 20010KT TEMPO 0611/0618 21016G26KT

Stav a předpovědi počasí z více než 4 000 letišť (zprávy METAR a TAF).

Červené a žluté tečky na mapě představují dostupné meteorologické stanice.

Když kurzor umístíte na tečku, zobrazí se název stanice.

Pak kliknutím zobrazíte stav a předpověď počasí.

Chcete-li změnit mapu, kliknutím na zelené tlačítko se znaménkem +mapu přiblížíte, kliknutím na zelené tlačítko se znaménkem – mapu oddálíte a kliknutím na zelené šipky přejdete na sousední mapy.


METAR-TAF: